Share

Matam, Senegal

Ouro Sogui (GOSM) Elev 82 ft | 15.60 °N, 13.33 °W | Change Station

Current weather conditions updated 2 hours ago

Clear
Clear
84 °F
Feels Like 83 °F
N
0
Wind Variable Wind from North
Sunrise 6:37 AM
Sunset 7:08 PM
Moon Waning Gibbous

Today is forecast to be nearly the same temperature as yesterday.

Pressure 29.86 in
Visibility -9999.0 miles
Clouds
Heat Index 83 °F
Dew Point 54 °F
Humidity 35%
Rainfall 0.00 in
Snow Depth Not available.
UV Not available.
Pollen Not available.
Air Quality Not available.
Flu Activity Not available.
METAR GOSM 170300Z 00000KT CAVOK 29/12 Q1011

More Conditions Fewer Conditions

Pressure 29.86 in
Visibility -9999.0 miles
Clouds
Heat Index 83 °F
Dew Point 54 °F
Humidity 35%
Rainfall 0.00 in
Snow Depth Not available.
UV Not available.
Pollen Not available.
Air Quality Not available.
Flu Activity Not available.
METAR GOSM 170300Z 00000KT CAVOK 29/12 Q1011

More Conditions Fewer Conditions

10-Day Forecast

Almanac

Astronomy

Apr. 17, 2014 Rise Set
Actual Time 6:37 AM GMT 7:08 PM GMT
Civil Twilight 6:15 AM GMT 7:30 PM GMT
Nautical Twilight 5:49 AM GMT 7:55 PM GMT
Astronomical Twilight 5:23 AM GMT 8:21 PM GMT
Moon 9:23 PM GMT 8:13 AM GMT
Length of Visible Light 13h 14m
Length of Day
12h 30m
Tomorrow will be 0m 49s longer.
Waning Gibbous, 96% of the Moon is Illuminated
Today
Waning Gibbous
Apr 22
Last Quarter
Apr 29
New
May 6
First Quarter
May 14
Full

Yesterday's Extremes

Country Highs Country Lows

Community

  • symphony in blue....
    symphony in blue....
  • Dawn Surprise
    Dawn Surprise
  • Yucca delight
    Yucca delight
  • Sunset inside of the Ocean
    Sunset inside of the Ocean
  • Lunar eclipse 15 April 2014
    Lunar eclipse 15 April 2014

WunderPhotos

Upload Photos

1,701,868 photos uploaded!

WunderBlogs® & News

Nearby

Snow Depth

Not available.

Coastal Water Temperatures

Place Temperature
No Stations Reporting

Earthquake Activity

City Distance Mag. Time & Date
No recent earthquake activity has been reported nearby.
Minimum magnitude displayed is 2.5.

Nearby Weather Stations

There are no personal weather stations in this area.

What do you think?

We're not finished. Please let us know what you like, what you don't like, and what you are still missing.